createdAt,value
2018-07-20T00:00:48.076Z,22.20
2018-07-20T00:05:51.412Z,22.10
2018-07-20T00:15:57.836Z,21.90
2018-07-20T00:21:01.216Z,21.80
2018-07-20T00:26:04.752Z,21.80
2018-07-20T00:31:08.109Z,21.70
2018-07-20T00:36:11.451Z,21.60
2018-07-20T00:41:14.798Z,21.50
2018-07-20T00:46:18.217Z,21.40
2018-07-20T00:51:21.591Z,21.30
2018-07-20T00:56:24.925Z,21.30
2018-07-20T01:01:28.288Z,21.20
2018-07-20T01:06:31.696Z,21.10
2018-07-20T01:11:35.046Z,21.00
2018-07-20T01:16:38.399Z,20.90
2018-07-20T01:21:41.720Z,20.80
2018-07-20T01:26:45.095Z,20.80
2018-07-20T01:31:48.431Z,20.70
2018-07-20T01:36:51.791Z,20.60
2018-07-20T01:41:55.125Z,20.60
2018-07-20T01:46:58.464Z,20.50
2018-07-20T01:57:04.913Z,20.40
2018-07-20T02:02:08.271Z,20.30
2018-07-20T02:07:11.594Z,20.30
2018-07-20T02:12:14.955Z,20.30
2018-07-20T02:17:18.411Z,20.20
2018-07-20T02:22:21.752Z,20.20
2018-07-20T02:27:25.081Z,20.10
2018-07-20T02:32:28.419Z,20.10
2018-07-20T02:37:31.768Z,20.00
2018-07-20T02:42:35.092Z,19.90
2018-07-20T02:47:38.426Z,19.90
2018-07-20T02:52:41.788Z,19.80
2018-07-20T02:57:45.109Z,19.70
2018-07-20T03:02:48.505Z,19.60
2018-07-20T03:07:51.828Z,19.60
2018-07-20T03:12:55.168Z,19.60
2018-07-20T03:17:58.539Z,19.50
2018-07-20T03:23:01.946Z,19.40
2018-07-20T03:28:05.307Z,19.40
2018-07-20T03:33:08.685Z,19.30
2018-07-20T03:38:12.030Z,19.20
2018-07-20T03:43:15.408Z,19.20
2018-07-20T03:48:18.819Z,19.20
2018-07-20T03:53:22.143Z,19.10
2018-07-20T03:58:25.506Z,19.10
2018-07-20T04:03:28.842Z,19.00
2018-07-20T04:08:32.208Z,19.00
2018-07-20T04:13:35.625Z,18.90
2018-07-20T04:18:38.968Z,18.90
2018-07-20T04:23:42.284Z,18.90
2018-07-20T04:28:45.699Z,18.90
2018-07-20T04:33:49.044Z,18.90
2018-07-20T04:38:52.372Z,19.00
2018-07-20T04:43:55.788Z,19.00
2018-07-20T04:48:59.215Z,19.10
2018-07-20T04:54:02.909Z,19.10
2018-07-20T04:59:06.226Z,19.10
2018-07-20T05:04:09.628Z,19.20
2018-07-20T05:09:12.961Z,19.30
2018-07-20T05:14:16.348Z,19.30
2018-07-20T05:19:19.701Z,19.40
2018-07-20T05:24:23.057Z,19.50
2018-07-20T05:29:26.387Z,19.60
2018-07-20T05:34:29.730Z,19.70
2018-07-20T05:39:33.068Z,19.80
2018-07-20T05:44:36.448Z,19.90
2018-07-20T05:49:39.779Z,20.00
2018-07-20T05:54:43.154Z,20.20
2018-07-20T05:59:46.522Z,20.20
2018-07-20T06:04:49.952Z,20.40
2018-07-20T06:09:53.314Z,20.50
2018-07-20T06:14:56.623Z,20.60
2018-07-20T06:19:59.958Z,20.60
2018-07-20T06:25:03.328Z,20.70
2018-07-20T06:30:07.378Z,20.80
2018-07-20T06:35:10.724Z,20.90
2018-07-20T06:40:14.062Z,21.10
2018-07-20T06:45:17.408Z,21.30
2018-07-20T06:50:20.752Z,21.60
2018-07-20T06:55:24.116Z,21.80
2018-07-20T07:00:27.482Z,22.10
2018-07-20T07:05:30.876Z,22.50
2018-07-20T07:10:34.200Z,22.80
2018-07-20T07:15:37.553Z,23.20
2018-07-20T07:20:41.753Z,23.50
2018-07-20T07:25:45.174Z,23.90
2018-07-20T07:30:48.519Z,24.20
2018-07-20T07:35:51.896Z,24.50
2018-07-20T07:40:55.210Z,24.80
2018-07-20T07:45:58.613Z,25.10
2018-07-20T07:51:02.004Z,25.40
2018-07-20T07:56:05.458Z,25.70
2018-07-20T08:01:08.784Z,26.00
2018-07-20T08:06:12.170Z,26.20
2018-07-20T08:11:15.568Z,26.50
2018-07-20T08:16:18.942Z,26.70
2018-07-20T08:26:25.383Z,27.20
2018-07-20T08:31:28.747Z,27.40
2018-07-20T08:36:32.112Z,27.70
2018-07-20T08:41:35.466Z,28.00
2018-07-20T08:46:38.925Z,28.20
2018-07-20T08:51:42.211Z,28.50
2018-07-20T08:56:45.629Z,28.80
2018-07-20T09:01:48.997Z,29.00
2018-07-20T09:06:52.373Z,29.40
2018-07-20T09:11:55.755Z,29.50
2018-07-20T09:16:59.111Z,29.60
2018-07-20T09:27:05.544Z,29.70
2018-07-20T09:32:08.922Z,29.90
2018-07-20T09:37:12.272Z,30.10
2018-07-20T09:42:15.639Z,30.30
2018-07-20T09:47:19.015Z,30.50
2018-07-20T09:52:22.418Z,30.70
2018-07-20T09:57:25.804Z,30.90
2018-07-20T10:02:29.224Z,31.00
2018-07-20T10:07:32.596Z,31.20
2018-07-20T10:12:36.004Z,31.40
2018-07-20T10:17:39.319Z,31.50
2018-07-20T10:22:42.787Z,31.60
2018-07-20T10:32:49.314Z,31.70
2018-07-20T10:37:52.751Z,31.80
2018-07-20T10:42:57.801Z,31.90
2018-07-20T10:48:01.164Z,32.10
2018-07-20T10:53:04.520Z,32.30
2018-07-20T10:58:07.944Z,32.40
2018-07-20T11:03:11.348Z,32.60
2018-07-20T11:08:14.763Z,32.90
2018-07-20T11:13:18.168Z,33.10
2018-07-20T11:18:21.551Z,33.30
2018-07-20T11:23:24.924Z,33.50
2018-07-20T11:28:28.356Z,33.40
2018-07-20T11:33:31.716Z,33.40
2018-07-20T11:38:35.181Z,33.20
2018-07-20T11:43:38.551Z,33.10
2018-07-20T11:48:41.946Z,33.10
2018-07-20T11:53:45.328Z,33.00
2018-07-20T11:58:48.835Z,33.00
2018-07-20T12:03:52.300Z,33.00
2018-07-20T12:08:55.663Z,33.00
2018-07-20T12:13:59.126Z,32.90
2018-07-20T12:19:02.707Z,32.90
2018-07-20T12:24:06.153Z,33.10
2018-07-20T12:29:09.599Z,33.10
2018-07-20T12:34:13.021Z,33.40
2018-07-20T12:39:16.436Z,33.60
2018-07-20T12:44:20.541Z,33.90
2018-07-20T12:54:27.055Z,34.30
2018-07-20T12:59:30.528Z,34.50
2018-07-20T13:04:33.980Z,34.70
2018-07-20T13:09:37.369Z,34.80
2018-07-20T13:14:46.628Z,34.70
2018-07-20T13:19:51.764Z,34.70
2018-07-20T13:24:55.240Z,34.60
2018-07-20T13:29:58.617Z,34.60
2018-07-20T13:35:02.031Z,34.60
2018-07-20T13:40:06.262Z,34.50
2018-07-20T13:45:09.756Z,34.50
2018-07-20T13:50:13.208Z,34.40
2018-07-20T13:55:16.619Z,34.40
2018-07-20T14:00:20.029Z,34.50
2018-07-20T14:05:23.511Z,34.40
2018-07-20T14:10:26.901Z,34.40
2018-07-20T14:15:31.407Z,34.30
2018-07-20T14:20:34.818Z,34.30
2018-07-20T14:25:38.234Z,34.40
2018-07-20T14:30:41.709Z,34.60
2018-07-20T14:35:45.121Z,34.70
2018-07-20T14:40:48.569Z,34.80
2018-07-20T14:45:51.990Z,34.90
2018-07-20T14:50:55.455Z,35.10
2018-07-20T14:55:58.891Z,35.10
2018-07-20T15:01:02.323Z,35.10
2018-07-20T15:06:05.852Z,35.30
2018-07-20T15:11:09.272Z,35.50
2018-07-20T15:16:12.802Z,35.70
2018-07-20T15:21:16.306Z,35.70
2018-07-20T15:26:19.735Z,35.60
2018-07-20T15:31:23.368Z,35.60
2018-07-20T15:36:26.796Z,35.70
2018-07-20T15:41:30.297Z,35.80
2018-07-20T15:46:33.847Z,35.80
2018-07-20T15:53:35.203Z,35.60
2018-07-20T15:56:40.729Z,35.60
2018-07-20T16:06:47.268Z,35.40
2018-07-20T16:11:50.658Z,35.40
2018-07-20T16:16:55.069Z,35.30
2018-07-20T16:21:58.467Z,35.10
2018-07-20T16:27:03.888Z,34.70
2018-07-20T16:32:07.669Z,34.60
2018-07-20T16:37:11.083Z,34.50
2018-07-20T16:42:14.511Z,34.50
2018-07-20T16:47:17.917Z,34.60
2018-07-20T16:52:21.330Z,34.60
2018-07-20T16:57:24.852Z,34.70
2018-07-20T17:02:28.353Z,34.80
2018-07-20T17:07:31.887Z,34.90
2018-07-20T17:12:35.347Z,34.90
2018-07-20T17:17:38.716Z,34.80
2018-07-20T17:22:42.107Z,34.70
2018-07-20T17:27:45.548Z,34.40
2018-07-20T17:32:48.915Z,34.20
2018-07-20T17:37:52.341Z,33.90
2018-07-20T17:42:55.699Z,33.60
2018-07-20T17:47:59.108Z,33.30
2018-07-20T17:53:02.830Z,33.00
2018-07-20T17:58:06.387Z,32.70
2018-07-20T18:03:09.825Z,32.50
2018-07-20T18:08:13.212Z,32.30
2018-07-20T18:13:16.620Z,32.00
2018-07-20T18:18:19.989Z,31.90
2018-07-20T18:23:23.404Z,31.80
2018-07-20T18:28:26.811Z,31.70
2018-07-20T18:33:30.264Z,31.60
2018-07-20T18:38:33.700Z,31.60
2018-07-20T18:43:37.423Z,31.50
2018-07-20T18:48:40.843Z,31.50
2018-07-20T18:53:44.252Z,31.50
2018-07-20T18:58:47.639Z,31.40
2018-07-20T19:03:51.215Z,31.40
2018-07-20T19:08:54.656Z,31.30
2018-07-20T19:13:58.033Z,31.30
2018-07-20T19:19:01.428Z,31.30
2018-07-20T19:24:04.975Z,31.20
2018-07-20T19:29:08.366Z,31.20
2018-07-20T19:34:11.782Z,31.10
2018-07-20T19:39:15.126Z,31.10
2018-07-20T19:44:18.511Z,31.00
2018-07-20T19:49:21.887Z,30.90
2018-07-20T19:54:25.254Z,30.80
2018-07-20T19:59:28.667Z,30.80
2018-07-20T20:04:32.259Z,30.60
2018-07-20T20:09:35.665Z,30.50
2018-07-20T20:14:39.136Z,30.30
2018-07-20T20:19:42.528Z,30.20
2018-07-20T20:24:45.884Z,30.10
2018-07-20T20:29:49.272Z,29.90
2018-07-20T20:34:52.638Z,29.60
2018-07-20T20:39:55.996Z,29.40
2018-07-20T20:44:59.404Z,29.10
2018-07-20T20:50:03.744Z,29.00
2018-07-20T20:55:07.192Z,28.80
2018-07-20T21:00:10.612Z,28.70
2018-07-20T21:05:14.058Z,28.50
2018-07-20T21:10:23.969Z,28.30
2018-07-20T21:15:27.358Z,28.10
2018-07-20T21:20:30.774Z,28.00
2018-07-20T21:25:34.183Z,27.80
2018-07-20T21:30:37.608Z,27.70
2018-07-20T21:35:40.972Z,27.60
2018-07-20T21:40:44.355Z,27.60
2018-07-20T21:45:47.723Z,27.50
2018-07-20T21:50:51.084Z,27.50
2018-07-20T21:55:54.464Z,27.40
2018-07-20T22:00:57.995Z,27.40
2018-07-20T22:06:01.404Z,27.30
2018-07-20T22:11:04.829Z,27.30
2018-07-20T22:16:08.233Z,27.30
2018-07-20T22:21:11.671Z,27.20
2018-07-20T22:26:15.045Z,27.10
2018-07-20T22:31:18.440Z,27.00
2018-07-20T22:36:21.810Z,26.90
2018-07-20T22:41:25.202Z,26.70
2018-07-20T22:46:28.625Z,26.70
2018-07-20T22:51:31.977Z,26.60
2018-07-20T22:56:35.319Z,26.60
2018-07-20T23:01:38.733Z,26.60
2018-07-20T23:06:42.151Z,26.50
2018-07-20T23:11:45.604Z,26.40
2018-07-20T23:16:49.057Z,26.40
2018-07-20T23:21:52.453Z,26.40
2018-07-20T23:26:55.992Z,26.40
2018-07-20T23:31:59.403Z,26.40
2018-07-20T23:37:02.767Z,26.30
2018-07-20T23:42:06.233Z,26.20
2018-07-20T23:47:09.694Z,26.20
2018-07-20T23:52:13.123Z,25.90
2018-07-20T23:57:16.484Z,25.70
